This is the latest recevied weather packets stored in our database for station/object W4TTU-1. If no packets are shown the sender has not sent any weather packets the latest 10 day(s).
| Time | Temp. | Humidity | Pressure | Rain* | Wind** | Luminosity | Snow |
|---|---|---|---|---|---|---|---|
| 1777947467 | 16.11° C | 24% | 844.4 hPa | 0 mm | - | - | - |
| 1777946567 | 17.22° C | 25% | 844.2 hPa | 0 mm | - | - | - |
| 1777945666 | 18.33° C | 24% | 844 hPa | 0 mm | - | - | - |
| 1777942064 | 23.33° C | 23% | 843.6 hPa | 0 mm | - | - | - |
| 1777941163 | 25° C | 23% | 843.5 hPa | 0 mm | - | - | - |
| 1777940261 | 26.11° C | 24% | 843.5 hPa | 0 mm | - | - | - |
| 1777939363 | 26.67° C | 24% | 843.2 hPa | 0 mm | - | - | - |
| 1777938462 | 27.22° C | 25% | 843 hPa | 0 mm | - | - | - |
| 1777934860 | 27.22° C | 25% | 842.7 hPa | 0 mm | - | - | - |
| 1777933959 | 27.78° C | 25% | 842.7 hPa | 0 mm | - | - | - |
| 1777933059 | 27.78° C | 25% | 842.6 hPa | 0 mm | - | - | - |
| 1777932158 | 27.22° C | 25% | 842.4 hPa | 0 mm | - | - | - |
| 1777931258 | 27.22° C | 25% | 842.6 hPa | 0 mm | - | - | - |
| 1777929457 | 28.33° C | 25% | 842.6 hPa | 0 mm | - | - | - |
| 1777927653 | 27.78° C | 26% | 842.7 hPa | 0 mm | - | - | - |
| 1777926752 | 27.22° C | 26% | 842.8 hPa | 0 mm | - | - | - |
| 1777925852 | 27.22° C | 27% | 842.9 hPa | 0 mm | - | - | - |
| 1777924951 | 26.67° C | 27% | 842.8 hPa | 0 mm | - | - | - |
| 1777924052 | 26.11° C | 27% | 842.9 hPa | 0 mm | - | - | - |
| 1777922250 | 25° C | 28% | 843 hPa | 0 mm | - | - | - |
| 1777921349 | 23.89° C | 29% | 843 hPa | 0 mm | - | - | - |
| 1777920449 | 23.33° C | 29% | 843 hPa | 0 mm | - | - | - |
| 1777919548 | 22.22° C | 30% | 843.2 hPa | 0 mm | - | - | - |
| 1777918647 | 21.11° C | 31% | 843.5 hPa | 0 mm | - | - | - |
| 1777917747 | 20° C | 31% | 843.8 hPa | 0 mm | - | - | - |
* Rain since midnight (hover to see other rain measurements)
** Current wind speed in m/s (hover to see current wind gust speed)